Map

Track Data

SID SEASON NUMBER BASIN SUBBASIN NAME ISO_TIME NATURE LAT LON WMO_WIND WMO_PRES WMO_AGENCY TRACK_TYPE DIST2LAND LANDFALL IFLAG USA_AGENCY USA_ATCF_ID USA_LAT USA_LON USA_RECORD USA_STATUS USA_WIND USA_PRES USA_SSHS USA_R34_NE USA_R34_SE USA_R34_SW USA_R34_NW USA_R50_NE USA_R50_SE USA_R50_SW USA_R50_NW USA_R64_NE USA_R64_SE USA_R64_SW USA_R64_NW USA_POCI USA_ROCI USA_RMW USA_EYE TOKYO_LAT TOKYO_LON TOKYO_GRADE TOKYO_WIND TOKYO_PRES TOKYO_R50_DIR TOKYO_R50_LONG TOKYO_R50_SHORT TOKYO_R30_DIR TOKYO_R30_LONG TOKYO_R30_SHORT TOKYO_LAND CMA_LAT CMA_LON CMA_CAT CMA_WIND CMA_PRES HKO_LAT HKO_LON HKO_CAT HKO_WIND HKO_PRES NEWDELHI_LAT NEWDELHI_LON NEWDELHI_GRADE NEWDELHI_WIND NEWDELHI_PRES NEWDELHI_CI NEWDELHI_DP NEWDELHI_POCI REUNION_LAT REUNION_LON REUNION_TYPE REUNION_WIND REUNION_PRES REUNION_TNUM REUNION_CI REUNION_RMW REUNION_R34_NE REUNION_R34_SE REUNION_R34_SW REUNION_R34_NW REUNION_R50_NE REUNION_R50_SE REUNION_R50_SW REUNION_R50_NW REUNION_R64_NE REUNION_R64_SE REUNION_R64_SW REUNION_R64_NW BOM_LAT BOM_LON BOM_TYPE BOM_WIND BOM_PRES BOM_TNUM BOM_CI BOM_RMW BOM_R34_NE BOM_R34_SE BOM_R34_SW BOM_R34_NW BOM_R50_NE BOM_R50_SE BOM_R50_SW BOM_R50_NW BOM_R64_NE BOM_R64_SE BOM_R64_SW BOM_R64_NW BOM_ROCI BOM_POCI BOM_EYE BOM_POS_METHOD BOM_PRES_METHOD NADI_LAT NADI_LON NADI_CAT NADI_WIND NADI_PRES WELLINGTON_LAT WELLINGTON_LON WELLINGTON_WIND WELLINGTON_PRES DS824_LAT DS824_LON DS824_STAGE DS824_WIND DS824_PRES TD9636_LAT TD9636_LON TD9636_STAGE TD9636_WIND TD9636_PRES TD9635_LAT TD9635_LON TD9635_WIND TD9635_PRES TD9635_ROCI NEUMANN_LAT NEUMANN_LON NEUMANN_CLASS NEUMANN_WIND NEUMANN_PRES MLC_LAT MLC_LON MLC_CLASS MLC_WIND MLC_PRES USA_GUST BOM_GUST BOM_GUST_PER REUNION_GUST REUNION_GUST_PER USA_SEAHGT USA_SEARAD_NE USA_SEARAD_SE USA_SEARAD_SW USA_SEARAD_NW STORM_SPEED STORM_DIR
1987145N21292 1987 31 NA NA NOT_NAMED 1987-05-24 12:00:00 TS 21.2000 -68.5000 25 hurdat_atl main 228 224 O_____________ hurdat_atl AL011987 21.2000 -68.5000 TD 25 -1 5 301
1987145N21292 1987 31 NA NA NOT_NAMED 1987-05-24 15:00:00 TS 21.3325 -68.7376 main 232 227 P_____________ AL011987 21.3325 -68.7376 TD 25 -1 6 303
1987145N21292 1987 31 NA NA NOT_NAMED 1987-05-24 18:00:00 TS 21.5000 -69.0000 25 hurdat_atl main 236 232 O_____________ hurdat_atl AL011987 21.5000 -69.0000 TD 25 -1 6 308
1987145N21292 1987 31 NA NA NOT_NAMED 1987-05-24 21:00:00 TS 21.7276 -69.2873 main 245 245 P_____________ AL011987 21.7276 -69.2873 TD 25 -1 7 317
1987145N21292 1987 31 NA NA NOT_NAMED 1987-05-25 00:00:00 TS 22.0000 -69.5000 25 hurdat_atl main 271 271 O_____________ hurdat_atl AL011987 22.0000 -69.5000 TD 25 -1 6 336
1987145N21292 1987 31 NA NA NOT_NAMED 1987-05-25 03:00:00 TS 22.2849 -69.5526 main 298 298 P_____________ AL011987 22.2849 -69.5526 TD 25 -1 6 1
1987145N21292 1987 31 NA NA NOT_NAMED 1987-05-25 06:00:00 TS 22.6000 -69.5000 25 hurdat_atl main 333 333 O_____________ hurdat_atl AL011987 22.6000 -69.5000 TD 25 -1 7 10
1987145N21292 1987 31 NA NA NOT_NAMED 1987-05-25 09:00:00 TS 22.9425 -69.4225 main 368 368 P_____________ AL011987 22.9425 -69.4225 TD 27 -1 7 15
1987145N21292 1987 31 NA NA NOT_NAMED 1987-05-25 12:00:00 TS 23.3000 -69.3000 30 hurdat_atl main 413 413 O_____________ hurdat_atl AL011987 23.3000 -69.3000 TD 30 -1 8 19
1987145N21292 1987 31 NA NA NOT_NAMED 1987-05-25 15:00:00 TS 23.6575 -69.1501 main 459 459 P_____________ AL011987 23.6575 -69.1501 TD 30 -1 8 21
1987145N21292 1987 31 NA NA NOT_NAMED 1987-05-25 18:00:00 TS 24.0000 -69.0000 30 hurdat_atl main 497 497 O_____________ hurdat_atl AL011987 24.0000 -69.0000 TD 30 -1 7 22
1987145N21292 1987 31 NA NA NOT_NAMED 1987-05-25 21:00:00 TS 24.3000 -68.8626 main 532 532 P_____________ AL011987 24.3000 -68.8626 TD 30 -1 6 17
1987145N21292 1987 31 NA NA NOT_NAMED 1987-05-26 00:00:00 TS 24.6000 -68.8000 30 hurdat_atl main 567 567 O_____________ hurdat_atl AL011987 24.6000 -68.8000 TD 30 -1 6 2
1987145N21292 1987 31 NA NA NOT_NAMED 1987-05-26 03:00:00 TS 24.9425 -68.8549 main 588 588 P_____________ AL011987 24.9425 -68.8549 TD 30 -1 7 345
1987145N21292 1987 31 NA NA NOT_NAMED 1987-05-26 06:00:00 TS 25.3000 -69.0000 30 hurdat_atl main 613 613 O_____________ hurdat_atl AL011987 25.3000 -69.0000 TD 30 -1 9 337
1987145N21292 1987 31 NA NA NOT_NAMED 1987-05-26 09:00:00 TS 25.7251 -69.2146 main 634 634 P_____________ AL011987 25.7251 -69.2146 TD 30 -1 8 333
1987145N21292 1987 31 NA NA NOT_NAMED 1987-05-26 12:00:00 TS 26.0000 -69.4000 30 hurdat_atl main 649 634 O_____________ hurdat_atl AL011987 26.0000 -69.4000 TD 30 -1 3 297
1987145N21292 1987 31 NA NA NOT_NAMED 1987-05-26 15:00:00 TS 25.8424 -69.4749 main 625 616 P_____________ AL011987 25.8423 -69.4749 TD 30 -1 3 0
1987145N21292 1987 31 NA NA NOT_NAMED 1987-05-26 18:00:00 TS 25.7000 -69.4000 30 hurdat_atl main 622 622 O_____________ hurdat_atl AL011987 25.7000 -69.4000 TD 30 -1 4 61
1987145N21292 1987 31 NA NA NOT_NAMED 1987-05-26 21:00:00 TS 26.0553 -69.0414 main 682 682 P_____________ AL011987 26.0553 -69.0414 TD 30 -1 10 34
1987145N21292 1987 31 NA NA NOT_NAMED 1987-05-27 00:00:00 TS 26.5000 -68.8000 30 hurdat_atl main 729 729 O_____________ hurdat_atl AL011987 26.5000 -68.8000 TD 30 -1 7 354
1987145N21292 1987 31 NA NA NOT_NAMED 1987-05-27 03:00:00 TS 26.7630 -69.1315 main 740 714 P_____________ AL011987 26.7630 -69.1315 TD 30 -1 8 293
1987145N21292 1987 31 NA NA NOT_NAMED 1987-05-27 06:00:00 TS 26.8000 -69.6000 30 hurdat_atl main 714 675 O_____________ hurdat_atl AL011987 26.8000 -69.6000 TD 30 -1 7 247
1987145N21292 1987 31 NA NA NOT_NAMED 1987-05-27 09:00:00 TS 26.4948 -69.8331 main 675 631 P_____________ AL011987 26.4948 -69.8331 TD 30 -1 8 201
1987145N21292 1987 31 NA NA NOT_NAMED 1987-05-27 12:00:00 TS 26.1000 -69.9000 30 hurdat_atl main 631 618 O_____________ hurdat_atl AL011987 26.1000 -69.9000 TD 30 -1 6 174
1987145N21292 1987 31 NA NA NOT_NAMED 1987-05-27 15:00:00 TS 25.9276 -69.7647 main 618 618 P_____________ AL011987 25.9276 -69.7647 TD 30 -1 4 138
1987145N21292 1987 31 NA NA NOT_NAMED 1987-05-27 18:00:00 TS 25.8000 -69.6000 30 hurdat_atl main 619 601 O_____________ hurdat_atl AL011987 25.8000 -69.6000 TD 30 -1 4 157
1987145N21292 1987 31 NA NA NOT_NAMED 1987-05-27 21:00:00 TS 25.5849 -69.5976 main 601 577 P_____________ AL011987 25.5849 -69.5976 TD 30 -1 4 192
1987145N21292 1987 31 NA NA NOT_NAMED 1987-05-28 00:00:00 TS 25.4000 -69.7000 30 hurdat_atl main 577 562 O_____________ hurdat_atl AL011987 25.4000 -69.7000 TD 30 -1 4 222
1987145N21292 1987 31 NA NA NOT_NAMED 1987-05-28 03:00:00 TS 25.3199 -69.8550 main 556 545 P_____________ AL011987 25.3199 -69.8550 TD 30 -1 4 255
1987145N21292 1987 31 NA NA NOT_NAMED 1987-05-28 06:00:00 TS 25.3000 -70.1000 30 hurdat_atl main 545 529 O_____________ hurdat_atl AL011987 25.3000 -70.1000 TD 30 -1 5 267
1987145N21292 1987 31 NA NA NOT_NAMED 1987-05-28 09:00:00 TS 25.2924 -70.4125 main 529 510 P_____________ AL011987 25.2924 -70.4125 TD 30 -1 6 270
1987145N21292 1987 31 NA NA NOT_NAMED 1987-05-28 12:00:00 TS 25.3000 -70.8000 30 hurdat_atl main 510 493 O_____________ hurdat_atl AL011987 25.3000 -70.8000 TD 30 -1 8 270
1987145N21292 1987 31 NA NA NOT_NAMED 1987-05-28 15:00:00 TS 25.2926 -71.2426 main 493 477 P_____________ AL011987 25.2926 -71.2426 TD 30 -1 8 270
1987145N21292 1987 31 NA NA NOT_NAMED 1987-05-28 18:00:00 TS 25.3000 -71.7000 30 hurdat_atl main 477 467 O_____________ hurdat_atl AL011987 25.3000 -71.7000 TD 30 -1 8 274
1987145N21292 1987 31 NA NA NOT_NAMED 1987-05-28 21:00:00 TS 25.3423 -72.1075 main 467 465 P_____________ AL011987 25.3423 -72.1075 TD 30 -1 7 278
1987145N21292 1987 31 NA NA NOT_NAMED 1987-05-29 00:00:00 TS 25.4000 -72.5000 30 hurdat_atl main 472 469 O_____________ hurdat_atl AL011987 25.4000 -72.5000 TD 30 -1 7 279
1987145N21292 1987 31 NA NA NOT_NAMED 1987-05-29 03:00:00 TS 25.4499 -72.9000 main 469 456 P_____________ AL011987 25.4499 -72.9000 TD 30 -1 7 278
1987145N21292 1987 31 NA NA NOT_NAMED 1987-05-29 06:00:00 TS 25.5000 -73.3000 30 hurdat_atl main 456 418 O_____________ hurdat_atl AL011987 25.5000 -73.3000 TD 30 -1 7 278
1987145N21292 1987 31 NA NA NOT_NAMED 1987-05-29 09:00:00 TS 25.5498 -73.6925 main 418 382 P_____________ AL011987 25.5498 -73.6925 TD 30 -1 7 278
1987145N21292 1987 31 NA NA NOT_NAMED 1987-05-29 12:00:00 TS 25.6000 -74.1000 30 hurdat_atl main 382 344 O_____________ hurdat_atl AL011987 25.6000 -74.1000 TD 30 -1 8 277
1987145N21292 1987 31 NA NA NOT_NAMED 1987-05-29 15:00:00 TS 25.6501 -74.5575 main 339 302 P_____________ AL011987 25.6501 -74.5575 TD 30 -1 8 277
1987145N21292 1987 31 NA NA NOT_NAMED 1987-05-29 18:00:00 TS 25.7000 -75.0000 30 hurdat_atl main 302 275 O_____________ hurdat_atl AL011987 25.7000 -75.0000 TD 30 -1 7 278
1987145N21292 1987 31 NA NA NOT_NAMED 1987-05-29 21:00:00 TS 25.7572 -75.3575 main 270 242 P_____________ AL011987 25.7572 -75.3575 TD 30 -1 6 279
1987145N21292 1987 31 NA NA NOT_NAMED 1987-05-30 00:00:00 TS 25.8000 -75.7000 30 hurdat_atl main 242 206 O_____________ hurdat_atl AL011987 25.8000 -75.7000 TD 30 -1 7 274
1987145N21292 1987 31 NA NA NOT_NAMED 1987-05-30 03:00:00 TS 25.7999 -76.0926 main 206 169 P_____________ AL011987 25.7999 -76.0926 TD 30 -1 7 270
1987145N21292 1987 31 NA NA NOT_NAMED 1987-05-30 06:00:00 TS 25.8000 -76.5000 30 hurdat_atl main 169 143 O_____________ hurdat_atl AL011987 25.8000 -76.5000 TD 30 -1 7 275
1987145N21292 1987 31 NA NA NOT_NAMED 1987-05-30 09:00:00 TS 25.8571 -76.8698 main 141 113 P_____________ AL011987 25.8571 -76.8698 TD 30 -1 7 278
1987145N21292 1987 31 NA NA NOT_NAMED 1987-05-30 12:00:00 TS 25.9000 -77.3000 30 hurdat_atl main 113 89 O_____________ hurdat_atl AL011987 25.9000 -77.3000 TD 30 -1 9 272
1987145N21292 1987 31 NA NA NOT_NAMED 1987-05-30 15:00:00 TS 25.8953 -77.8923 main 89 80 P_____________ AL011987 25.8953 -77.8923 TD 30 -1 11 265
1987145N21292 1987 31 NA NA NOT_NAMED 1987-05-30 18:00:00 TS 25.8000 -78.5000 30 hurdat_atl main 87 87 O_____________ hurdat_atl AL011987 25.8000 -78.5000 TD 30 -1 10 253
1987145N21292 1987 31 NA NA NOT_NAMED 1987-05-30 21:00:00 TS 25.5872 -78.9801 main 106 89 P_____________ AL011987 25.5872 -78.9801 TD 30 -1 10 238
1987145N21292 1987 31 NA NA NOT_NAMED 1987-05-31 00:00:00 TS 25.3000 -79.4000 30 hurdat_atl main 89 61 O_____________ hurdat_atl AL011987 25.3000 -79.4000 TD 30 -1 10 231
1987145N21292 1987 31 NA NA NOT_NAMED 1987-05-31 03:00:00 TS 24.9700 -79.8378 main 61 45 P_____________ AL011987 24.9700 -79.8378 TD 30 -1 9 230
1987145N21292 1987 31 NA NA NOT_NAMED 1987-05-31 06:00:00 TS 24.7000 -80.2000 30 hurdat_atl main 49 45 O_____________ hurdat_atl AL011987 24.7000 -80.2000 TD 30 -1 6 236
1987145N21292 1987 31 NA NA NOT_NAMED 1987-05-31 09:00:00 TS 24.6123 -80.4296 main 55 55 P_____________ AL011987 24.6123 -80.4296 TD 27 -1 4 255
1987145N21292 1987 31 NA NA NOT_NAMED 1987-05-31 12:00:00 TS 24.6000 -80.6000 25 hurdat_atl main 56 55 O_____________ hurdat_atl AL011987 24.6000 -80.6000 TD 25 -1 3 259
1987145N21292 1987 31 NA NA NOT_NAMED 1987-05-31 15:00:00 TS 24.5499 -80.7775 main 67 67 P_____________ AL011987 24.5499 -80.7775 TD 22 -1 4 255
1987145N21292 1987 31 NA NA NOT_NAMED 1987-05-31 18:00:00 TS 24.5000 -81.0000 20 hurdat_atl main 67 67 O_____________ hurdat_atl AL011987 24.5000 -81.0000 TD 20 -1 5 259
1987145N21292 1987 31 NA NA NOT_NAMED 1987-05-31 21:00:00 TS 24.4503 -81.3201 main 70 70 P_____________ AL011987 24.4503 -81.3201 TD 17 -1 6 261
1987145N21292 1987 31 NA NA NOT_NAMED 1987-06-01 00:00:00 TS 24.4000 -81.7000 15 hurdat_atl main 98 O_____________ hurdat_atl AL011987 24.4000 -81.7000 TD 15 -1 7 262

About IBTrACS Database

This database is a web-friendly format of International Best Track Archive for Climate Stewardship (IBTrACS), a global best track data archive curated by NOAA dating back to 1842.

Updated: 2021-12-08